Omaha, NE (68138)

12:21 PM CST on February 13, 2016 (GMT -0600)
Werner Ent. Omaha | | Change Station
CLOSE
Current Station
Personal Weather Station
Location: Omaha, NE
Elevation: 1168 ft
Nearby Weather Stations

Elev 1168 ft 41.16 °N, 96.13 °W | Updated 15 seconds ago

Overcast
Overcast
15.4 °F
Feels Like 15 °F
N
2.0
Wind Variable Wind from North
Gusts 6.0 mph

Today
High -- | Low -- °F
--% Chance of Precip.
Yesterday
High -- | Low -- °F
Precip. -- in
Pressure 30.52 in
Visibility 10.0 miles
Clouds Overcast 4800 ft
Windchill 15 °F
Dew Point 6 °F
Humidity 67%
Rainfall 0.00 in
Snow Depth Not available.
7:22 AM 5:55 PM
Waxing Crescent, 33% visible
METAR KMLE 131755Z AUTO 13008KT 10SM OVC048 M09/M15 A3052 RMK AO2 T10891151 11089 21115
Pressure 30.52 in
Visibility 10.0 miles
Clouds Overcast 4800 ft
Windchill 15 °F
Dew Point 6 °F
Humidity 67%
Rainfall 0.00 in
Snow Depth Not available.
7:22 AM 5:55 PM
Waxing Crescent, 33% visible
METAR KMLE 131755Z AUTO 13008KT 10SM OVC048 M09/M15 A3052 RMK AO2 T10891151 11089 21115

10-Day Weather Forecast

Almanac

Astronomy

Feb. 13, 2016 Rise Set
Actual Time
Civil Twilight
Nautical Twilight
Astronomical Twilight
Moon
Length of Visible Light
Length of Day
Tomorrow will be .
, % of the Moon is Illuminated

Today's Extremes

State Highs State Lows

Community

WunderPhotos

Upload Photos

1,892,632 photos uploaded!

WunderBlog® & News

Nearby

Air Quality

  Air Quality AQ Index Pollutant
Not available.

Snow Depth

Station Depth Elevation

Earthquake Activity

City Distance Mag. Time & Date
Minimum magnitude displayed is 2.5.

Coastal Water Temperatures

Place Temperature

Stations

Nearby Weather Stations

Station Location Temp. Windchill Dew Point Humidity Wind Precip. Elev Updated Type
                   

Watches & Warnings

There are currently no watches in effect.